sensor_id;sensor_type;location;lat;lon;timestamp;pressure;altitude;pressure_sealevel;temperature;humidity
38812;BME280;24553;51.640;-0.752;2023-02-03T00:00:14;102080.59;;;9.46;100.00
38812;BME280;24553;51.640;-0.752;2023-02-03T00:02:40;102074.97;;;9.58;100.00
38812;BME280;24553;51.640;-0.752;2023-02-03T00:05:06;102081.47;;;9.64;100.00
38812;BME280;24553;51.640;-0.752;2023-02-03T00:07:32;102072.31;;;9.58;100.00
38812;BME280;24553;51.640;-0.752;2023-02-03T00:09:58;102077.75;;;9.57;100.00
38812;BME280;24553;51.640;-0.752;2023-02-03T00:12:24;102075.75;;;9.69;100.00
38812;BME280;24553;51.640;-0.752;2023-02-03T00:14:49;102077.47;;;9.88;100.00
38812;BME280;24553;51.640;-0.752;2023-02-03T00:17:15;102084.97;;;9.92;100.00
38812;BME280;24553;51.640;-0.752;2023-02-03T00:19:40;102085.13;;;9.91;100.00
38812;BME280;24553;51.640;-0.752;2023-02-03T00:22:05;102083.19;;;9.83;100.00
38812;BME280;24553;51.640;-0.752;2023-02-03T00:24:31;102077.25;;;9.99;100.00
38812;BME280;24553;51.640;-0.752;2023-02-03T00:26:56;102071.84;;;10.18;100.00
38812;BME280;24553;51.640;-0.752;2023-02-03T00:29:21;102064.19;;;10.43;100.00
38812;BME280;24553;51.640;-0.752;2023-02-03T00:31:53;102062.78;;;10.21;100.00
38812;BME280;24553;51.640;-0.752;2023-02-03T00:34:19;102057.97;;;10.07;100.00
38812;BME280;24553;51.640;-0.752;2023-02-03T00:36:44;102056.06;;;9.99;100.00
38812;BME280;24553;51.640;-0.752;2023-02-03T00:39:12;102054.16;;;9.91;100.00
38812;BME280;24553;51.640;-0.752;2023-02-03T00:41:38;102053.63;;;9.88;100.00
38812;BME280;24553;51.640;-0.752;2023-02-03T00:44:03;102054.94;;;10.01;100.00
38812;BME280;24553;51.640;-0.752;2023-02-03T00:46:28;102043.75;;;10.08;100.00
38812;BME280;24553;51.640;-0.752;2023-02-03T00:48:54;102047.47;;;10.15;100.00
38812;BME280;24553;51.640;-0.752;2023-02-03T00:51:19;102040.28;;;10.25;100.00
38812;BME280;24553;51.640;-0.752;2023-02-03T00:53:46;102051.78;;;10.16;100.00
38812;BME280;24553;51.640;-0.752;2023-02-03T00:56:12;102054.44;;;10.16;100.00
38812;BME280;24553;51.640;-0.752;2023-02-03T00:58:38;102054.94;;;10.19;100.00
38812;BME280;24553;51.640;-0.752;2023-02-03T01:01:04;102049.06;;;10.25;100.00
38812;BME280;24553;51.640;-0.752;2023-02-03T01:03:30;102036.75;;;10.34;100.00
38812;BME280;24553;51.640;-0.752;2023-02-03T01:05:55;102047.13;;;10.28;100.00
38812;BME280;24553;51.640;-0.752;2023-02-03T01:08:20;102044.06;;;10.22;100.00
38812;BME280;24553;51.640;-0.752;2023-02-03T01:10:47;102049.38;;;10.22;100.00
38812;BME280;24553;51.640;-0.752;2023-02-03T01:13:13;102059.81;;;10.24;100.00
38812;BME280;24553;51.640;-0.752;2023-02-03T01:15:47;102050.31;;;10.49;100.00
38812;BME280;24553;51.640;-0.752;2023-02-03T01:18:12;102039.16;;;10.63;100.00
38812;BME280;24553;51.640;-0.752;2023-02-03T01:20:38;102036.94;;;10.95;100.00
38812;BME280;24553;51.640;-0.752;2023-02-03T01:23:03;102039.63;;;11.03;100.00
38812;BME280;24553;51.640;-0.752;2023-02-03T01:25:28;102031.66;;;11.03;100.00
38812;BME280;24553;51.640;-0.752;2023-02-03T01:27:54;102031.50;;;11.04;100.00
38812;BME280;24553;51.640;-0.752;2023-02-03T01:30:19;102029.25;;;11.18;100.00
38812;BME280;24553;51.640;-0.752;2023-02-03T01:32:45;102029.78;;;11.21;100.00
38812;BME280;24553;51.640;-0.752;2023-02-03T01:35:10;102039.91;;;10.56;100.00
38812;BME280;24553;51.640;-0.752;2023-02-03T01:37:35;102038.66;;;10.42;100.00
38812;BME280;24553;51.640;-0.752;2023-02-03T01:40:01;102031.63;;;10.33;100.00
38812;BME280;24553;51.640;-0.752;2023-02-03T01:42:27;102043.59;;;10.27;100.00
38812;BME280;24553;51.640;-0.752;2023-02-03T01:44:56;102034.81;;;10.26;100.00
38812;BME280;24553;51.640;-0.752;2023-02-03T01:47:30;102046.66;;;10.32;100.00
38812;BME280;24553;51.640;-0.752;2023-02-03T01:50:16;102044.50;;;10.28;100.00
38812;BME280;24553;51.640;-0.752;2023-02-03T01:52:47;102045.53;;;10.35;100.00
38812;BME280;24553;51.640;-0.752;2023-02-03T01:55:18;102045.25;;;10.38;100.00
38812;BME280;24553;51.640;-0.752;2023-02-03T01:57:54;102040.69;;;10.30;100.00
38812;BME280;24553;51.640;-0.752;2023-02-03T02:00:21;102032.59;;;10.32;100.00
38812;BME280;24553;51.640;-0.752;2023-02-03T02:02:47;102028.81;;;10.24;100.00
38812;BME280;24553;51.640;-0.752;2023-02-03T02:05:19;102022.00;;;10.22;100.00
38812;BME280;24553;51.640;-0.752;2023-02-03T02:07:48;102024.44;;;10.15;100.00
38812;BME280;24553;51.640;-0.752;2023-02-03T02:10:13;102012.47;;;10.11;100.00
38812;BME280;24553;51.640;-0.752;2023-02-03T02:12:39;102020.28;;;10.13;100.00
38812;BME280;24553;51.640;-0.752;2023-02-03T02:15:05;102013.69;;;10.17;100.00
38812;BME280;24553;51.640;-0.752;2023-02-03T02:36:35;102032.66;;;10.58;100.00
38812;BME280;24553;51.640;-0.752;2023-02-03T02:39:12;102030.41;;;10.71;100.00
38812;BME280;24553;51.640;-0.752;2023-02-03T02:41:51;102036.38;;;10.47;100.00
38812;BME280;24553;51.640;-0.752;2023-02-03T02:44:40;102034.34;;;10.41;100.00
38812;BME280;24553;51.640;-0.752;2023-02-03T02:47:18;102026.13;;;10.34;100.00
38812;BME280;24553;51.640;-0.752;2023-02-03T02:52:19;102029.81;;;10.23;100.00
38812;BME280;24553;51.640;-0.752;2023-02-03T02:54:50;102038.09;;;10.20;100.00
38812;BME280;24553;51.640;-0.752;2023-02-03T02:57:17;102039.03;;;10.01;100.00
38812;BME280;24553;51.640;-0.752;2023-02-03T02:59:45;102053.34;;;10.09;100.00
38812;BME280;24553;51.640;-0.752;2023-02-03T03:02:11;102059.47;;;10.09;100.00
38812;BME280;24553;51.640;-0.752;2023-02-03T03:04:37;102063.44;;;10.05;100.00
38812;BME280;24553;51.640;-0.752;2023-02-03T03:07:09;102055.13;;;10.18;100.00
38812;BME280;24553;51.640;-0.752;2023-02-03T03:09:49;102057.84;;;10.26;100.00
38812;BME280;24553;51.640;-0.752;2023-02-03T03:12:29;102042.50;;;10.65;100.00
38812;BME280;24553;51.640;-0.752;2023-02-03T03:15:05;102054.47;;;10.52;100.00
38812;BME280;24553;51.640;-0.752;2023-02-03T03:17:42;102069.03;;;10.02;100.00
38812;BME280;24553;51.640;-0.752;2023-02-03T03:20:13;102065.13;;;9.96;100.00
38812;BME280;24553;51.640;-0.752;2023-02-03T03:22:54;102067.78;;;9.96;100.00
38812;BME280;24553;51.640;-0.752;2023-02-03T03:25:27;102074.53;;;9.91;100.00
38812;BME280;24553;51.640;-0.752;2023-02-03T03:27:58;102067.06;;;9.76;100.00
38812;BME280;24553;51.640;-0.752;2023-02-03T03:30:29;102070.88;;;9.64;100.00
38812;BME280;24553;51.640;-0.752;2023-02-03T03:32:57;102070.84;;;9.74;100.00
38812;BME280;24553;51.640;-0.752;2023-02-03T03:35:27;102062.59;;;9.77;100.00
38812;BME280;24553;51.640;-0.752;2023-02-03T03:37:59;102059.41;;;10.01;100.00
38812;BME280;24553;51.640;-0.752;2023-02-03T03:40:33;102063.72;;;10.02;100.00
38812;BME280;24553;51.640;-0.752;2023-02-03T03:43:18;102073.25;;;9.95;100.00
38812;BME280;24553;51.640;-0.752;2023-02-03T03:48:49;102069.13;;;10.10;100.00
38812;BME280;24553;51.640;-0.752;2023-02-03T03:51:27;102075.06;;;9.94;100.00
38812;BME280;24553;51.640;-0.752;2023-02-03T03:53:57;102079.03;;;9.80;100.00
38812;BME280;24553;51.640;-0.752;2023-02-03T03:56:30;102069.13;;;9.82;100.00
38812;BME280;24553;51.640;-0.752;2023-02-03T03:58:58;102072.16;;;9.88;100.00
38812;BME280;24553;51.640;-0.752;2023-02-03T04:01:28;102067.06;;;9.76;100.00
38812;BME280;24553;51.640;-0.752;2023-02-03T04:03:58;102063.78;;;9.65;100.00
38812;BME280;24553;51.640;-0.752;2023-02-03T04:06:26;102068.78;;;9.68;100.00
38812;BME280;24553;51.640;-0.752;2023-02-03T04:08:51;102076.78;;;9.58;100.00
38812;BME280;24553;51.640;-0.752;2023-02-03T04:11:16;102058.88;;;9.70;100.00
38812;BME280;24553;51.640;-0.752;2023-02-03T04:14:02;102055.53;;;9.68;100.00
38812;BME280;24553;51.640;-0.752;2023-02-03T04:16:28;102058.44;;;9.74;100.00
38812;BME280;24553;51.640;-0.752;2023-02-03T04:18:53;102059.34;;;9.83;100.00
38812;BME280;24553;51.640;-0.752;2023-02-03T04:21:18;102066.56;;;9.91;100.00
38812;BME280;24553;51.640;-0.752;2023-02-03T04:23:43;102070.00;;;10.01;100.00
38812;BME280;24553;51.640;-0.752;2023-02-03T04:26:09;102082.72;;;9.97;100.00
38812;BME280;24553;51.640;-0.752;2023-02-03T04:28:34;102072.44;;;9.94;100.00
38812;BME280;24553;51.640;-0.752;2023-02-03T04:31:00;102069.03;;;10.02;100.00
38812;BME280;24553;51.640;-0.752;2023-02-03T04:33:25;102059.59;;;10.17;100.00
38812;BME280;24553;51.640;-0.752;2023-02-03T04:35:51;102063.34;;;9.97;100.00
38812;BME280;24553;51.640;-0.752;2023-02-03T04:38:16;102074.34;;;10.02;100.00
38812;BME280;24553;51.640;-0.752;2023-02-03T04:40:41;102073.38;;;9.93;100.00
38812;BME280;24553;51.640;-0.752;2023-02-03T04:43:09;102083.75;;;9.87;100.00
38812;BME280;24553;51.640;-0.752;2023-02-03T04:45:35;102087.75;;;9.91;100.00
38812;BME280;24553;51.640;-0.752;2023-02-03T04:48:00;102083.75;;;9.87;100.00
38812;BME280;24553;51.640;-0.752;2023-02-03T04:50:26;102095.63;;;9.82;100.00
38812;BME280;24553;51.640;-0.752;2023-02-03T04:52:51;102099.97;;;10.01;100.00
38812;BME280;24553;51.640;-0.752;2023-02-03T04:55:16;102106.88;;;9.94;100.00
38812;BME280;24553;51.640;-0.752;2023-02-03T04:57:42;102100.91;;;9.82;100.00
38812;BME280;24553;51.640;-0.752;2023-02-03T05:00:08;102113.06;;;9.75;100.00
38812;BME280;24553;51.640;-0.752;2023-02-03T05:02:33;102128.00;;;9.76;100.00
38812;BME280;24553;51.640;-0.752;2023-02-03T05:04:59;102128.97;;;9.75;100.00
38812;BME280;24553;51.640;-0.752;2023-02-03T05:07:24;102122.44;;;9.70;100.00
38812;BME280;24553;51.640;-0.752;2023-02-03T05:09:49;102128.72;;;9.69;100.00
38812;BME280;24553;51.640;-0.752;2023-02-03T05:12:15;102138.44;;;9.78;100.00
38812;BME280;24553;51.640;-0.752;2023-02-03T05:14:40;102145.22;;;9.90;100.00
38812;BME280;24553;51.640;-0.752;2023-02-03T05:17:05;102135.56;;;9.99;100.00
38812;BME280;24553;51.640;-0.752;2023-02-03T05:19:31;102131.78;;;10.01;100.00
38812;BME280;24553;51.640;-0.752;2023-02-03T05:21:56;102153.13;;;10.00;100.00
38812;BME280;24553;51.640;-0.752;2023-02-03T05:24:21;102141.06;;;10.15;100.00
38812;BME280;24553;51.640;-0.752;2023-02-03T05:26:46;102143.16;;;10.12;100.00
38812;BME280;24553;51.640;-0.752;2023-02-03T05:29:12;102147.50;;;10.13;100.00
38812;BME280;24553;51.640;-0.752;2023-02-03T05:31:37;102143.34;;;10.10;100.00
38812;BME280;24553;51.640;-0.752;2023-02-03T05:34:02;102141.66;;;10.09;100.00
38812;BME280;24553;51.640;-0.752;2023-02-03T05:36:28;102142.34;;;10.11;100.00
38812;BME280;24553;51.640;-0.752;2023-02-03T05:38:54;102135.50;;;10.09;100.00
38812;BME280;24553;51.640;-0.752;2023-02-03T05:41:19;102142.78;;;10.07;100.00
38812;BME280;24553;51.640;-0.752;2023-02-03T05:44:03;102149.47;;;10.11;100.00
38812;BME280;24553;51.640;-0.752;2023-02-03T05:46:28;102146.59;;;10.22;100.00
38812;BME280;24553;51.640;-0.752;2023-02-03T05:48:53;102139.63;;;10.31;100.00
38812;BME280;24553;51.640;-0.752;2023-02-03T05:51:19;102135.88;;;10.23;100.00
38812;BME280;24553;51.640;-0.752;2023-02-03T05:53:44;102128.22;;;10.20;100.00
38812;BME280;24553;51.640;-0.752;2023-02-03T05:56:09;102123.78;;;10.11;100.00
38812;BME280;24553;51.640;-0.752;2023-02-03T05:58:35;102121.66;;;9.97;100.00
38812;BME280;24553;51.640;-0.752;2023-02-03T06:01:00;102130.56;;;9.96;100.00
38812;BME280;24553;51.640;-0.752;2023-02-03T06:03:25;102119.25;;;9.94;100.00
38812;BME280;24553;51.640;-0.752;2023-02-03T06:05:51;102113.97;;;9.66;100.00
38812;BME280;24553;51.640;-0.752;2023-02-03T06:08:16;102124.44;;;9.58;100.00
38812;BME280;24553;51.640;-0.752;2023-02-03T06:10:41;102130.00;;;9.55;100.00
38812;BME280;24553;51.640;-0.752;2023-02-03T06:13:12;102136.31;;;9.34;100.00
38812;BME280;24553;51.640;-0.752;2023-02-03T06:15:38;102134.97;;;9.30;100.00
38812;BME280;24553;51.640;-0.752;2023-02-03T06:18:03;102142.31;;;9.36;100.00
38812;BME280;24553;51.640;-0.752;2023-02-03T06:20:29;102146.53;;;9.29;100.00
38812;BME280;24553;51.640;-0.752;2023-02-03T06:22:54;102158.38;;;9.35;100.00
38812;BME280;24553;51.640;-0.752;2023-02-03T06:25:20;102159.19;;;9.26;100.00
38812;BME280;24553;51.640;-0.752;2023-02-03T06:27:45;102162.41;;;9.10;100.00
38812;BME280;24553;51.640;-0.752;2023-02-03T06:30:11;102164.53;;;8.97;100.00
38812;BME280;24553;51.640;-0.752;2023-02-03T06:32:36;102157.13;;;8.90;100.00
38812;BME280;24553;51.640;-0.752;2023-02-03T06:35:02;102159.34;;;9.24;100.00
38812;BME280;24553;51.640;-0.752;2023-02-03T06:37:27;102154.31;;;9.41;100.00
38812;BME280;24553;51.640;-0.752;2023-02-03T06:39:53;102155.00;;;9.43;100.00
38812;BME280;24553;51.640;-0.752;2023-02-03T06:42:18;102153.06;;;9.35;100.00
38812;BME280;24553;51.640;-0.752;2023-02-03T06:44:43;102160.56;;;9.39;100.00
38812;BME280;24553;51.640;-0.752;2023-02-03T06:47:09;102159.88;;;9.37;100.00
38812;BME280;24553;51.640;-0.752;2023-02-03T06:49:34;102150.97;;;9.29;100.00
38812;BME280;24553;51.640;-0.752;2023-02-03T06:51:59;102162.00;;;9.24;100.00
38812;BME280;24553;51.640;-0.752;2023-02-03T06:54:25;102171.47;;;9.17;100.00
38812;BME280;24553;51.640;-0.752;2023-02-03T06:56:50;102173.53;;;9.33;100.00
38812;BME280;24553;51.640;-0.752;2023-02-03T06:59:16;102184.66;;;9.46;100.00
38812;BME280;24553;51.640;-0.752;2023-02-03T07:01:41;102187.72;;;9.51;100.00
38812;BME280;24553;51.640;-0.752;2023-02-03T07:04:06;102181.88;;;9.48;100.00
38812;BME280;24553;51.640;-0.752;2023-02-03T07:06:32;102182.56;;;9.50;100.00
38812;BME280;24553;51.640;-0.752;2023-02-03T07:09:03;102189.69;;;9.49;100.00
38812;BME280;24553;51.640;-0.752;2023-02-03T07:11:29;102187.00;;;9.59;100.00
38812;BME280;24553;51.640;-0.752;2023-02-03T07:13:55;102180.59;;;9.61;100.00
38812;BME280;24553;51.640;-0.752;2023-02-03T07:16:20;102168.91;;;9.45;100.00
38812;BME280;24553;51.640;-0.752;2023-02-03T07:18:45;102157.66;;;9.33;100.00
38812;BME280;24553;51.640;-0.752;2023-02-03T07:21:11;102177.31;;;9.30;100.00
38812;BME280;24553;51.640;-0.752;2023-02-03T07:23:37;102178.72;;;9.25;100.00
38812;BME280;24553;51.640;-0.752;2023-02-03T07:26:04;102192.06;;;9.23;100.00
38812;BME280;24553;51.640;-0.752;2023-02-03T07:28:31;102189.59;;;9.12;100.00
38812;BME280;24553;51.640;-0.752;2023-02-03T07:30:56;102191.81;;;9.16;100.00
38812;BME280;24553;51.640;-0.752;2023-02-03T07:33:22;102194.59;;;9.15;100.00
38812;BME280;24553;51.640;-0.752;2023-02-03T07:35:51;102173.84;;;9.01;100.00
38812;BME280;24553;51.640;-0.752;2023-02-03T07:38:17;102184.00;;;8.95;100.00
38812;BME280;24553;51.640;-0.752;2023-02-03T07:40:43;102179.81;;;9.03;100.00
38812;BME280;24553;51.640;-0.752;2023-02-03T07:43:08;102183.59;;;9.00;100.00
38812;BME280;24553;51.640;-0.752;2023-02-03T07:45:33;102184.00;;;9.05;100.00
38812;BME280;24553;51.640;-0.752;2023-02-03T07:47:59;102192.06;;;9.13;100.00
38812;BME280;24553;51.640;-0.752;2023-02-03T07:50:24;102179.69;;;9.04;100.00
38812;BME280;24553;51.640;-0.752;2023-02-03T07:52:50;102184.84;;;8.86;100.00
38812;BME280;24553;51.640;-0.752;2023-02-03T07:55:16;102186.78;;;8.84;100.00
38812;BME280;24553;51.640;-0.752;2023-02-03T07:57:41;102190.69;;;8.90;100.00
38812;BME280;24553;51.640;-0.752;2023-02-03T08:00:09;102189.56;;;8.92;100.00
38812;BME280;24553;51.640;-0.752;2023-02-03T08:02:35;102191.94;;;9.05;100.00
38812;BME280;24553;51.640;-0.752;2023-02-03T08:05:00;102181.50;;;9.23;100.00
38812;BME280;24553;51.640;-0.752;2023-02-03T08:07:26;102184.28;;;9.22;100.00
38812;BME280;24553;51.640;-0.752;2023-02-03T08:09:51;102179.97;;;9.30;100.00
38812;BME280;24553;51.640;-0.752;2023-02-03T08:12:16;102190.84;;;9.27;100.00
38812;BME280;24553;51.640;-0.752;2023-02-03T08:14:41;102197.53;;;9.22;100.00
38812;BME280;24553;51.640;-0.752;2023-02-03T08:17:07;102200.28;;;9.10;100.00
38812;BME280;24553;51.640;-0.752;2023-02-03T08:19:32;102220.78;;;8.99;100.00
38812;BME280;24553;51.640;-0.752;2023-02-03T08:21:58;102214.63;;;9.08;100.00
38812;BME280;24553;51.640;-0.752;2023-02-03T08:24:23;102211.72;;;9.11;100.00
38812;BME280;24553;51.640;-0.752;2023-02-03T08:26:49;102219.94;;;9.17;100.00
38812;BME280;24553;51.640;-0.752;2023-02-03T08:29:14;102224.66;;;9.24;100.00
38812;BME280;24553;51.640;-0.752;2023-02-03T08:31:41;102234.56;;;9.31;100.00
38812;BME280;24553;51.640;-0.752;2023-02-03T08:34:06;102228.31;;;9.23;100.00
38812;BME280;24553;51.640;-0.752;2023-02-03T08:36:32;102234.41;;;9.23;100.00
38812;BME280;24553;51.640;-0.752;2023-02-03T08:38:57;102235.00;;;9.27;100.00
38812;BME280;24553;51.640;-0.752;2023-02-03T08:41:22;102234.44;;;9.33;100.00
38812;BME280;24553;51.640;-0.752;2023-02-03T08:43:48;102233.03;;;9.29;100.00
38812;BME280;24553;51.640;-0.752;2023-02-03T08:46:13;102243.31;;;9.32;100.00
38812;BME280;24553;51.640;-0.752;2023-02-03T08:48:38;102239.97;;;9.39;100.00
38812;BME280;24553;51.640;-0.752;2023-02-03T08:51:12;102247.34;;;9.65;100.00
38812;BME280;24553;51.640;-0.752;2023-02-03T08:53:38;102226.97;;;9.75;100.00
38812;BME280;24553;51.640;-0.752;2023-02-03T08:56:05;102227.38;;;9.80;100.00
38812;BME280;24553;51.640;-0.752;2023-02-03T08:58:31;102227.38;;;9.90;100.00
38812;BME280;24553;51.640;-0.752;2023-02-03T09:01:14;102235.41;;;9.98;100.00
38812;BME280;24553;51.640;-0.752;2023-02-03T09:03:39;102230.09;;;10.08;100.00
38812;BME280;24553;51.640;-0.752;2023-02-03T09:06:06;102227.56;;;10.07;100.00
38812;BME280;24553;51.640;-0.752;2023-02-03T09:08:32;102239.28;;;10.14;100.00
38812;BME280;24553;51.640;-0.752;2023-02-03T09:10:58;102250.38;;;10.27;100.00
38812;BME280;24553;51.640;-0.752;2023-02-03T09:13:23;102243.16;;;10.19;100.00
38812;BME280;24553;51.640;-0.752;2023-02-03T09:15:49;102248.19;;;10.22;100.00
38812;BME280;24553;51.640;-0.752;2023-02-03T09:18:14;102247.72;;;10.27;100.00
38812;BME280;24553;51.640;-0.752;2023-02-03T09:20:39;102240.22;;;10.32;100.00
38812;BME280;24553;51.640;-0.752;2023-02-03T09:23:05;102237.84;;;10.29;100.00
38812;BME280;24553;51.640;-0.752;2023-02-03T09:25:30;102241.25;;;10.49;100.00
38812;BME280;24553;51.640;-0.752;2023-02-03T09:27:55;102230.75;;;10.57;100.00
38812;BME280;24553;51.640;-0.752;2023-02-03T09:30:21;102232.91;;;10.72;100.00
38812;BME280;24553;51.640;-0.752;2023-02-03T09:32:46;102241.16;;;10.86;100.00
38812;BME280;24553;51.640;-0.752;2023-02-03T09:35:18;102245.84;;;11.02;100.00
38812;BME280;24553;51.640;-0.752;2023-02-03T09:37:43;102239.09;;;11.08;100.00
38812;BME280;24553;51.640;-0.752;2023-02-03T09:40:16;102247.63;;;11.20;100.00
38812;BME280;24553;51.640;-0.752;2023-02-03T09:43:07;102226.41;;;11.20;100.00
38812;BME280;24553;51.640;-0.752;2023-02-03T09:45:37;102251.88;;;11.12;100.00
38812;BME280;24553;51.640;-0.752;2023-02-03T09:48:11;102268.56;;;11.23;100.00
38812;BME280;24553;51.640;-0.752;2023-02-03T09:50:39;102270.19;;;11.33;100.00
38812;BME280;24553;51.640;-0.752;2023-02-03T09:53:33;102273.50;;;11.35;100.00
38812;BME280;24553;51.640;-0.752;2023-02-03T09:56:01;102290.28;;;11.36;100.00
38812;BME280;24553;51.640;-0.752;2023-02-03T09:58:34;102308.13;;;11.44;100.00
38812;BME280;24553;51.640;-0.752;2023-02-03T10:01:01;102313.56;;;11.42;100.00
38812;BME280;24553;51.640;-0.752;2023-02-03T10:11:51;102317.41;;;12.02;100.00
38812;BME280;24553;51.640;-0.752;2023-02-03T10:22:35;102341.34;;;12.02;100.00
38812;BME280;24553;51.640;-0.752;2023-02-03T10:27:31;102358.25;;;12.18;100.00
38812;BME280;24553;51.640;-0.752;2023-02-03T10:30:03;102352.75;;;12.20;100.00
38812;BME280;24553;51.640;-0.752;2023-02-03T10:32:29;102346.88;;;12.34;100.00
38812;BME280;24553;51.640;-0.752;2023-02-03T10:34:55;102358.91;;;12.47;100.00
38812;BME280;24553;51.640;-0.752;2023-02-03T10:37:33;102373.00;;;12.65;100.00
38812;BME280;24553;51.640;-0.752;2023-02-03T10:40:02;102377.03;;;12.77;100.00
38812;BME280;24553;51.640;-0.752;2023-02-03T10:42:30;102380.97;;;12.65;100.00
38812;BME280;24553;51.640;-0.752;2023-02-03T10:45:16;102377.69;;;12.71;100.00
38812;BME280;24553;51.640;-0.752;2023-02-03T10:47:46;102381.38;;;12.78;100.00
38812;BME280;24553;51.640;-0.752;2023-02-03T10:50:15;102378.44;;;12.98;100.00
38812;BME280;24553;51.640;-0.752;2023-02-03T10:52:41;102378.81;;;13.11;100.00
38812;BME280;24553;51.640;-0.752;2023-02-03T10:55:27;102386.94;;;13.36;100.00
38812;BME280;24553;51.640;-0.752;2023-02-03T10:57:55;102390.63;;;13.43;100.00
38812;BME280;24553;51.640;-0.752;2023-02-03T11:00:31;102386.94;;;13.36;100.00
38812;BME280;24553;51.640;-0.752;2023-02-03T11:03:21;102387.97;;;13.43;100.00
38812;BME280;24553;51.640;-0.752;2023-02-03T11:06:14;102395.09;;;13.42;100.00
38812;BME280;24553;51.640;-0.752;2023-02-03T11:08:42;102393.22;;;13.26;100.00
38812;BME280;24553;51.640;-0.752;2023-02-03T11:11:12;102406.13;;;13.13;100.00
38812;BME280;24553;51.640;-0.752;2023-02-03T11:13:38;102409.16;;;13.18;100.00
38812;BME280;24553;51.640;-0.752;2023-02-03T11:16:16;102414.88;;;13.31;100.00
38812;BME280;24553;51.640;-0.752;2023-02-03T11:24:23;102406.97;;;13.72;100.00
38812;BME280;24553;51.640;-0.752;2023-02-03T11:26:57;102401.50;;;13.90;100.00
38812;BME280;24553;51.640;-0.752;2023-02-03T11:29:26;102408.00;;;14.12;100.00
38812;BME280;24553;51.640;-0.752;2023-02-03T11:31:57;102397.16;;;14.14;100.00
38812;BME280;24553;51.640;-0.752;2023-02-03T11:34:30;102405.00;;;13.99;100.00
38812;BME280;24553;51.640;-0.752;2023-02-03T11:37:09;102404.84;;;13.84;100.00
38812;BME280;24553;51.640;-0.752;2023-02-03T11:39:54;102398.63;;;13.59;100.00
38812;BME280;24553;51.640;-0.752;2023-02-03T11:42:21;102401.28;;;13.51;100.00
38812;BME280;24553;51.640;-0.752;2023-02-03T11:44:47;102401.28;;;13.43;100.00
38812;BME280;24553;51.640;-0.752;2023-02-03T11:47:13;102398.78;;;13.49;100.00
38812;BME280;24553;51.640;-0.752;2023-02-03T11:58:12;102393.28;;;13.43;100.00
38812;BME280;24553;51.640;-0.752;2023-02-03T12:00:49;102395.13;;;13.50;100.00
38812;BME280;24553;51.640;-0.752;2023-02-03T12:11:42;102397.75;;;13.42;100.00
38812;BME280;24553;51.640;-0.752;2023-02-03T12:14:19;102390.34;;;13.79;100.00
38812;BME280;24553;51.640;-0.752;2023-02-03T12:19:31;102388.63;;;14.35;100.00
38812;BME280;24553;51.640;-0.752;2023-02-03T12:22:15;102389.78;;;14.49;100.00
38812;BME280;24553;51.640;-0.752;2023-02-03T12:25:06;102388.03;;;14.80;100.00
38812;BME280;24553;51.640;-0.752;2023-02-03T12:27:40;102392.28;;;14.42;100.00
38812;BME280;24553;51.640;-0.752;2023-02-03T12:30:24;102394.16;;;14.17;100.00
38812;BME280;24553;51.640;-0.752;2023-02-03T12:33:03;102395.34;;;13.82;100.00
38812;BME280;24553;51.640;-0.752;2023-02-03T12:35:44;102391.81;;;13.57;100.00
38812;BME280;24553;51.640;-0.752;2023-02-03T12:40:57;102391.84;;;13.89;100.00
38812;BME280;24553;51.640;-0.752;2023-02-03T12:43:39;102377.34;;;13.92;100.00
38812;BME280;24553;51.640;-0.752;2023-02-03T12:46:28;102385.66;;;13.81;100.00
38812;BME280;24553;51.640;-0.752;2023-02-03T12:49:04;102385.31;;;14.33;100.00
38812;BME280;24553;51.640;-0.752;2023-02-03T12:51:37;102389.78;;;14.57;100.00
38812;BME280;24553;51.640;-0.752;2023-02-03T12:54:15;102390.09;;;14.62;100.00
38812;BME280;24553;51.640;-0.752;2023-02-03T12:56:46;102395.31;;;14.39;100.00
38812;BME280;24553;51.640;-0.752;2023-02-03T12:59:19;102396.63;;;14.35;100.00
38812;BME280;24553;51.640;-0.752;2023-02-03T13:02:00;102404.31;;;14.22;100.00
38812;BME280;24553;51.640;-0.752;2023-02-03T13:04:32;102395.16;;;14.24;100.00
38812;BME280;24553;51.640;-0.752;2023-02-03T13:07:15;102388.31;;;14.22;100.00
38812;BME280;24553;51.640;-0.752;2023-02-03T13:12:49;102406.00;;;14.06;100.00
38812;BME280;24553;51.640;-0.752;2023-02-03T13:15:29;102406.97;;;13.81;100.00
38812;BME280;24553;51.640;-0.752;2023-02-03T13:18:09;102408.66;;;13.82;100.00
38812;BME280;24553;51.640;-0.752;2023-02-03T13:20:36;102412.16;;;13.74;100.00
38812;BME280;24553;51.640;-0.752;2023-02-03T13:23:06;102403.81;;;13.85;100.00
38812;BME280;24553;51.640;-0.752;2023-02-03T13:44:50;102386.50;;;14.14;100.00
38812;BME280;24553;51.640;-0.752;2023-02-03T13:47:23;102386.66;;;13.88;100.00
38812;BME280;24553;51.640;-0.752;2023-02-03T13:49:54;102379.63;;;13.54;100.00
38812;BME280;24553;51.640;-0.752;2023-02-03T13:52:44;102376.28;;;13.36;100.00
38812;BME280;24553;51.640;-0.752;2023-02-03T13:55:37;102369.94;;;13.45;100.00
38812;BME280;24553;51.640;-0.752;2023-02-03T13:58:04;102368.66;;;13.57;100.00
38812;BME280;24553;51.640;-0.752;2023-02-03T14:05:56;102370.31;;;13.91;100.00
38812;BME280;24553;51.640;-0.752;2023-02-03T14:16:36;102370.16;;;13.60;100.00
38812;BME280;24553;51.640;-0.752;2023-02-03T14:19:02;102366.31;;;13.62;100.00
38812;BME280;24553;51.640;-0.752;2023-02-03T14:21:36;102363.66;;;13.70;100.00
38812;BME280;24553;51.640;-0.752;2023-02-03T14:24:07;102357.00;;;13.91;100.00
38812;BME280;24553;51.640;-0.752;2023-02-03T14:26:38;102361.00;;;13.95;100.00
38812;BME280;24553;51.640;-0.752;2023-02-03T14:29:07;102354.16;;;13.92;100.00